Sisseton, SD (57262)

10:49 PM CST on February 11, 2016 (GMT -0600)
NonFedAWOS | | Change Station
CLOSE
Current Station
Personal Weather Station
Location: Sisseton, SD
Elevation: 1161 ft
Nearby Weather Stations

Elev 1161 ft 45.67 °N, 97.00 °W | Updated 54 minutes ago

Overcast
Overcast
14 °F
Feels Like 0 °F
N
12
Wind Variable Wind from NNW
Gusts 0.0 mph

Today
High -- | Low -- °F
--% Chance of Precip.
Yesterday
High -- | Low -- °F
Precip. -- in
Pressure 30.29 in
Visibility 10.0 miles
Clouds Overcast 3800 ft
Windchill 0 °F
Dew Point 9 °F
Humidity 79%
Rainfall in
Snow Depth Not available.
7:36 AM 5:48 PM
Waxing Crescent, 17% visible
METAR KETH 120436Z AUTO 32006KT 10SM OVC038 M11/M13 A3029 RMK AO2
Pressure 30.29 in
Visibility 10.0 miles
Clouds Overcast 3800 ft
Windchill 0 °F
Dew Point 9 °F
Humidity 79%
Rainfall in
Snow Depth Not available.
7:36 AM 5:48 PM
Waxing Crescent, 17% visible
METAR KETH 120436Z AUTO 32006KT 10SM OVC038 M11/M13 A3029 RMK AO2

10-Day Weather Forecast

Almanac

Astronomy

Feb. 11, 2016 Rise Set
Actual Time
Civil Twilight
Nautical Twilight
Astronomical Twilight
Moon
Length of Visible Light
Length of Day
Tomorrow will be .
, % of the Moon is Illuminated

Today's Extremes

State Highs State Lows

Community

WunderPhotos

Upload Photos

1,892,268 photos uploaded!

WunderBlog® & News

Nearby

Air Quality

  Air Quality AQ Index Pollutant
Not available.

Snow Depth

Station Depth Elevation

Earthquake Activity

City Distance Mag. Time & Date
Minimum magnitude displayed is 2.5.

Coastal Water Temperatures

Place Temperature

Stations

Nearby Weather Stations

Station Location Temp. Windchill Dew Point Humidity Wind Precip. Elev Updated Type
                   

Watches & Warnings

There are currently no watches in effect.